| time (UTC) | temp C | wind direction | speed KPH | gust KPH | rain 1hr cm | rain 24hr cm | rain mn cm | humidity % | barometer mb |
| 20260906214929 | 31 | 163 | 8.0 | 12.9 | 0.00 | 0.00 | 0.00 | 36 | 1018.3 |
| 20260906214428 | 30 | 174 | 3.2 | 16.1 | 0.00 | 0.00 | 0.00 | 37 | 1018.4 |
| 20260906213928 | 31 | 113 | 1.6 | 8.0 | 0.00 | 0.00 | 0.00 | 36 | 1018.6 |
| 20260906213423 | 30 | 189 | 3.2 | 14.5 | 0.00 | 0.00 | 0.00 | 36 | 1018.7 |
| 20260906212920 | 30 | 114 | 1.6 | 11.3 | 0.00 | 0.00 | 0.00 | 38 | 1018.7 |
| 20260906212416 | 30 | 177 | 0.0 | 11.3 | 0.00 | 0.00 | 0.00 | 38 | 1019.0 |
| 20260906211915 | 30 | 164 | 3.2 | 11.3 | 0.00 | 0.00 | 0.00 | 36 | 1019.1 |
| 20260906211410 | 30 | 155 | 8.0 | 11.3 | 0.00 | 0.00 | 0.00 | 36 | 1019.3 |
| 20260906210905 | 30 | 186 | 3.2 | 11.3 | 0.00 | 0.00 | 0.00 | 39 | 1019.0 |
| 20260906210401 | 30 | 188 | 4.8 | 9.7 | 0.00 | 0.00 | 0.00 | 38 | 1019.2 |
| 20260906205855 | 30 | 176 | 3.2 | 8.0 | 0.00 | 0.00 | 0.00 | 39 | 1019.2 |
| 20260906205351 | 30 | 114 | 3.2 | 8.0 | 0.00 | 0.00 | 0.00 | 41 | 1019.1 |
| 20260906204847 | 30 | 144 | 6.4 | 12.9 | 0.00 | 0.00 | 0.00 | 42 | 1019.4 |
| 20260906204346 | 30 | 171 | 3.2 | 8.0 | 0.00 | 0.00 | 0.00 | 43 | 1019.3 |
| 20260906203845 | 30 | 186 | 3.2 | 14.5 | 0.00 | 0.00 | 0.00 | 43 | 1019.6 |
| 20260906203341 | 30 | 173 | 1.6 | 3.2 | 0.00 | 0.00 | 0.00 | 42 | 1019.4 |
| 20260906202838 | 30 | 156 | 6.4 | 9.7 | 0.00 | 0.00 | 0.00 | 43 | 1019.4 |
| 20260906202332 | 30 | 158 | 3.2 | 4.8 | 0.00 | 0.00 | 0.00 | 43 | 1019.4 |
| 20260906201831 | 29 | 157 | 3.2 | 9.7 | 0.00 | 0.00 | 0.00 | 46 | 1019.6 |
| 20260906201326 | 30 | 126 | 4.8 | 9.7 | 0.00 | 0.00 | 0.00 | 43 | 1019.7 |
| 20260906200821 | 29 | 165 | 4.8 | 9.7 | 0.00 | 0.00 | 0.00 | 44 | 1019.9 |
| 20260906200318 | 29 | 167 | 3.2 | 4.8 | 0.00 | 0.00 | 0.00 | 43 | 1019.8 |
| 20260906195812 | 30 | 48 | 3.2 | 4.8 | 0.00 | 0.00 | 0.00 | 42 | 1020.0 |
| 20260906195309 | 30 | 203 | 0.0 | 3.2 | 0.00 | 0.00 | 0.00 | 43 | 1020.0 |
| 20260906194805 | 30 | 156 | 4.8 | 4.8 | 0.00 | 0.00 | 0.00 | 41 | 1020.1 |
| 20260906194300 | 28 | 202 | 1.6 | 1.6 | 0.00 | 0.00 | 0.00 | 44 | 1020.0 |
| 20260906193755 | 28 | 254 | 1.6 | 4.8 | 0.00 | 0.00 | 0.00 | 45 | 1020.1 |
| 20260906193249 | 29 | 208 | 1.6 | 4.8 | 0.00 | 0.00 | 0.00 | 45 | 1020.3 |
| 20260906192746 | 28 | 176 | 0.0 | 3.2 | 0.00 | 0.00 | 0.00 | 45 | 1020.1 |
| 20260906192246 | 28 | 199 | 0.0 | 3.2 | 0.00 | 0.00 | 0.00 | 45 | 1020.6 |
| 20260906191744 | 27 | 159 | 3.2 | 4.8 | 0.00 | 0.00 | 0.00 | 48 | 1020.5 |
| 20260906191239 | 28 | 141 | 3.2 | 8.0 | 0.00 | 0.00 | 0.00 | 49 | 1020.7 |
| 20260906190734 | 27 | 285 | 1.6 | 3.2 | 0.00 | 0.00 | 0.00 | 47 | 1020.7 |
| 20260906190228 | 27 | 169 | 3.2 | 4.8 | 0.00 | 0.00 | 0.00 | 49 | 1020.7 |
| 20260906185727 | 27 | 131 | 1.6 | 4.8 | 0.00 | 0.00 | 0.00 | 48 | 1020.7 |
| 20260906185226 | 26 | 133 | 3.2 | 4.8 | 0.00 | 0.00 | 0.00 | 48 | 1020.8 |
| 20260906184721 | 27 | 185 | 0.0 | 1.6 | 0.00 | 0.00 | 0.00 | 48 | 1021.1 |
| 20260906184216 | 26 | 176 | 1.6 | 4.8 | 0.00 | 0.00 | 0.00 | 51 | 1021.4 |
| 20260906183712 | 26 | 127 | 0.0 | 1.6 | 0.00 | 0.00 | 0.00 | 50 | 1021.2 |
| 20260906183209 | 25 | 97 | 1.6 | 4.8 | 0.00 | 0.00 | 0.00 | 52 | 1021.6 |
| 20260906182708 | 26 | 118 | 4.8 | 8.0 | 0.00 | 0.00 | 0.00 | 50 | 1021.6 |
| 20260906182204 | 26 | 186 | 3.2 | 8.0 | 0.00 | 0.00 | 0.00 | 50 | 1021.5 |
| 20260906181659 | 27 | 150 | 3.2 | 4.8 | 0.00 | 0.00 | 0.00 | 50 | 1021.6 |
| 20260906181156 | 26 | 227 | 4.8 | 4.8 | 0.00 | 0.00 | 0.00 | 51 | 1021.8 |
| 20260906180655 | 26 | 189 | 6.4 | 9.7 | 0.00 | 0.00 | 0.00 | 53 | 1021.9 |
| 20260906180151 | 26 | 149 | 3.2 | 8.0 | 0.00 | 0.00 | 0.00 | 52 | 1021.9 |
| 20260906175649 | 25 | 161 | 4.8 | 4.8 | 0.00 | 0.00 | 0.00 | 57 | 1022.3 |
| 20260906175144 | 25 | 203 | 3.2 | 4.8 | 0.00 | 0.00 | 0.00 | 57 | 1022.2 |
| 20260906174642 | 26 | 141 | 3.2 | 9.7 | 0.00 | 0.00 | 0.00 | 56 | 1022.5 |
| 20260906174137 | 26 | 197 | 1.6 | 1.6 | 0.00 | 0.00 | 0.00 | 52 | 1022.2 |
| 20260906173632 | 26 | 144 | 4.8 | 4.8 | 0.00 | 0.00 | 0.00 | 53 | 1022.3 |
| 20260906173128 | 25 | 113 | 1.6 | 8.0 | 0.00 | 0.00 | 0.00 | 56 | 1022.6 |
| 20260906172627 | 25 | 169 | 1.6 | 8.0 | 0.00 | 0.00 | 0.00 | 55 | 1022.5 |
| 20260906172123 | 25 | 122 | 6.4 | 8.0 | 0.00 | 0.00 | 0.00 | 56 | 1022.8 |
| 20260906171622 | 25 | 19 | 6.4 | 9.7 | 0.00 | 0.00 | 0.00 | 57 | 1022.9 |
| 20260906171118 | 25 | 194 | 0.0 | 3.2 | 0.00 | 0.00 | 0.00 | 59 | 1022.9 |
| 20260906170615 | 25 | 123 | 0.0 | 1.6 | 0.00 | 0.00 | 0.00 | 58 | 1023.0 |
| 20260906170113 | 24 | 148 | 3.2 | 4.8 | 0.00 | 0.00 | 0.00 | 59 | 1023.0 |
| 20260906165610 | 24 | 174 | 3.2 | 9.7 | 0.00 | 0.00 | 0.00 | 61 | 1022.7 |
| 20260906165105 | 25 | 147 | 1.6 | 8.0 | 0.00 | 0.00 | 0.00 | 59 | 1022.8 |
| 20260906164604 | 24 | 163 | 0.0 | 1.6 | 0.00 | 0.00 | 0.00 | 57 | 1023.2 |
| 20260906164100 | 24 | 327 | 4.8 | 9.7 | 0.00 | 0.00 | 0.00 | 60 | 1023.0 |
| 20260906163555 | 22 | 57 | 3.2 | 4.8 | 0.00 | 0.00 | 0.00 | 62 | 1022.9 |
| 20260906163051 | 23 | 37 | 3.2 | 3.2 | 0.00 | 0.00 | 0.00 | 61 | 1022.9 |
| 20260906162548 | 24 | 327 | 1.6 | 3.2 | 0.00 | 0.00 | 0.00 | 57 | 1022.6 |
| 20260906162043 | 23 | 152 | 0.0 | 1.6 | 0.00 | 0.00 | 0.00 | 60 | 1022.8 |
| 20260906161538 | 22 | 34 | 3.2 | 8.0 | 0.00 | 0.00 | 0.00 | 63 | 1022.9 |
| 20260906161037 | 23 | 120 | 3.2 | 3.2 | 0.00 | 0.00 | 0.00 | 59 | 1023.0 |
| 20260906160536 | 23 | 204 | 4.8 | 8.0 | 0.00 | 0.00 | 0.00 | 61 | 1022.9 |
| 20260906160035 | 23 | 196 | 0.0 | 4.8 | 0.00 | 0.00 | 0.00 | 61 | 1023.2 |
| 20260906155532 | 22 | 232 | 4.8 | 4.8 | 0.00 | 0.00 | 0.00 | 63 | 1023.0 |
| 20260906155028 | 22 | 341 | 8.0 | 9.7 | 0.00 | 0.00 | 0.00 | 63 | 1023.2 |
| 20260906154524 | 23 | 180 | 0.0 | 1.6 | 0.00 | 0.00 | 0.00 | 61 | 1023.2 |
| 20260906154022 | 22 | 151 | 1.6 | 4.8 | 0.00 | 0.00 | 0.00 | 62 | 1022.9 |
| 20260906153521 | 21 | 190 | 3.2 | 4.8 | 0.00 | 0.00 | 0.00 | 64 | 1023.2 |
| 20260906153017 | 21 | 164 | 3.2 | 3.2 | 0.00 | 0.00 | 0.00 | 65 | 1023.3 |
| 20260906152517 | 21 | 343 | 3.2 | 3.2 | 0.00 | 0.00 | 0.00 | 63 | 1023.3 |
| 20260906152016 | 21 | 178 | 1.6 | 3.2 | 0.00 | 0.00 | 0.00 | 64 | 1023.3 |
| 20260906151512 | 20 | 195 | 1.6 | 4.8 | 0.00 | 0.00 | 0.00 | 67 | 1023.5 |
| 20260906151007 | 20 | 5 | 6.4 | 8.0 | 0.00 | 0.00 | 0.00 | 66 | 1023.3 |
| 20260906150502 | 20 | 93 | 3.2 | 3.2 | 0.00 | 0.00 | 0.00 | 66 | 1023.4 |
| 20260906150002 | 20 | 54 | 6.4 | 8.0 | 0.00 | 0.00 | 0.00 | 67 | 1023.2 |
| 20260906145456 | 20 | 59 | 4.8 | 8.0 | 0.00 | 0.00 | 0.00 | 68 | 1023.4 |
| 20260906144955 | 20 | 138 | 3.2 | 3.2 | 0.00 | 0.00 | 0.00 | 67 | 1023.2 |
| 20260906144450 | 20 | 146 | 1.6 | 3.2 | 0.00 | 0.00 | 0.00 | 68 | 1023.4 |
| 20260906143946 | 20 | 20 | 3.2 | 4.8 | 0.00 | 0.00 | 0.00 | 68 | 1023.3 |
| 20260906143441 | 19 | 108 | 1.6 | 1.6 | 0.00 | 0.00 | 0.00 | 67 | 1023.2 |
| 20260906142937 | 18 | 170 | 0.0 | 1.6 | 0.00 | 0.00 | 0.00 | 70 | 1023.3 |
| 20260906142431 | 18 | 218 | 1.6 | 1.6 | 0.00 | 0.00 | 0.00 | 70 | 1023.5 |
| 20260906141926 | 18 | 287 | 1.6 | 4.8 | 0.00 | 0.00 | 0.00 | 70 | 1023.3 |
| 20260906141426 | 18 | 197 | 0.0 | 3.2 | 0.00 | 0.00 | 0.00 | 69 | 1023.2 |
| 20260906140920 | 18 | 298 | 1.6 | 3.2 | 0.00 | 0.00 | 0.00 | 69 | 1023.4 |
| 20260906140415 | 17 | 273 | 4.8 | 9.7 | 0.00 | 0.00 | 0.00 | 69 | 1023.5 |
| 20260906135913 | 17 | 309 | 6.4 | 8.0 | 0.00 | 0.00 | 0.00 | 69 | 1023.4 |
| 20260906135412 | 17 | 308 | 4.8 | 4.8 | 0.00 | 0.00 | 0.00 | 68 | 1023.6 |
| 20260906134908 | 17 | 321 | 3.2 | 4.8 | 0.00 | 0.00 | 0.00 | 68 | 1023.5 |
| 20260906134403 | 17 | 310 | 3.2 | 8.0 | 0.00 | 0.00 | 0.00 | 68 | 1023.5 |
| 20260906133858 | 16 | 199 | 0.0 | 0.0 | 0.00 | 0.00 | 0.00 | 69 | 1023.3 |
| 20260906133354 | 16 | 227 | 1.6 | 4.8 | 0.00 | 0.00 | 0.00 | 69 | 1023.5 |
| 20260906132849 | 16 | 271 | 1.6 | 3.2 | 0.00 | 0.00 | 0.00 | 69 | 1023.3 |
| 20260906132344 | 16 | 302 | 3.2 | 3.2 | 0.00 | 0.00 | 0.00 | 70 | 1023.4 |
| 20260906131840 | 16 | 269 | 3.2 | 4.8 | 0.00 | 0.00 | 0.00 | 71 | 1023.3 |
| 20260906131335 | 16 | 284 | 3.2 | 3.2 | 0.00 | 0.00 | 0.00 | 71 | 1023.2 |
| 20260906130831 | 16 | 257 | 1.6 | 3.2 | 0.00 | 0.00 | 0.00 | 72 | 1023.0 |
| 20260906130330 | 16 | 217 | 0.0 | 1.6 | 0.00 | 0.00 | 0.00 | 73 | 1022.9 |
| 20260906125829 | 16 | 240 | 1.6 | 1.6 | 0.00 | 0.00 | 0.00 | 71 | 1023.2 |
| 20260906125327 | 16 | 283 | 3.2 | 4.8 | 0.00 | 0.00 | 0.00 | 71 | 1023.3 |
| 20260906124821 | 16 | 318 | 3.2 | 4.8 | 0.00 | 0.00 | 0.00 | 72 | 1023.4 |
| 20260906124318 | 16 | 284 | 1.6 | 4.8 | 0.00 | 0.00 | 0.00 | 71 | 1023.0 |
| 20260906123816 | 16 | 5 | 1.6 | 4.8 | 0.00 | 0.00 | 0.00 | 71 | 1022.9 |
| 20260906123312 | 16 | 30 | 1.6 | 1.6 | 0.00 | 0.00 | 0.00 | 70 | 1022.8 |
| 20260906122811 | 16 | 2 | 4.8 | 4.8 | 0.00 | 0.00 | 0.00 | 70 | 1023.2 |
| 20260906122307 | 15 | 247 | 1.6 | 1.6 | 0.00 | 0.00 | 0.00 | 74 | 1023.2 |
| 20260906121803 | 15 | 222 | 1.6 | 1.6 | 0.00 | 0.00 | 0.00 | 77 | 1023.3 |
| 20260906121259 | 15 | 178 | 0.0 | 0.0 | 0.00 | 0.00 | 0.00 | 78 | 1023.2 |
| 20260906120754 | 15 | 184 | 0.0 | 0.0 | 0.00 | 0.00 | 0.00 | 77 | 1022.9 |
| 20260906120246 | 15 | 197 | 0.0 | 0.0 | 0.00 | 0.00 | 0.00 | 76 | 1023.2 |
| 20260906115741 | 15 | 223 | 0.0 | 1.6 | 0.00 | 0.00 | 0.00 | 75 | 1023.0 |
| 20260906115236 | 16 | 208 | 0.0 | 1.6 | 0.00 | 0.00 | 0.00 | 73 | 1023.2 |
| 20260906114734 | 16 | 272 | 1.6 | 1.6 | 0.00 | 0.00 | 0.00 | 73 | 1022.9 |
| 20260906114230 | 16 | 243 | 1.6 | 1.6 | 0.00 | 0.00 | 0.00 | 72 | 1023.2 |
| 20260906113726 | 16 | 201 | 0.0 | 0.0 | 0.00 | 0.00 | 0.00 | 73 | 1022.9 |
| 20260906113225 | 16 | 243 | 1.6 | 1.6 | 0.00 | 0.00 | 0.00 | 71 | 1022.9 |
| 20260906112724 | 16 | 250 | 1.6 | 3.2 | 0.00 | 0.00 | 0.00 | 70 | 1023.2 |
| 20260906112221 | 16 | 229 | 1.6 | 3.2 | 0.00 | 0.00 | 0.00 | 70 | 1022.9 |
| 20260906111720 | 16 | 230 | 1.6 | 1.6 | 0.00 | 0.00 | 0.00 | 70 | 1022.9 |
| 20260906111216 | 16 | 225 | 0.0 | 1.6 | 0.00 | 0.00 | 0.00 | 70 | 1022.8 |
| 20260906110710 | 16 | 249 | 1.6 | 3.2 | 0.00 | 0.00 | 0.00 | 70 | 1022.9 |
| 20260906110200 | 16 | 250 | 1.6 | 1.6 | 0.00 | 0.00 | 0.00 | 69 | 1022.9 |
| 20260906105654 | 16 | 257 | 1.6 | 3.2 | 0.00 | 0.00 | 0.00 | 69 | 1022.9 |
| 20260906105150 | 16 | 218 | 1.6 | 1.6 | 0.00 | 0.00 | 0.00 | 71 | 1022.9 |
| 20260906104649 | 16 | 273 | 1.6 | 3.2 | 0.00 | 0.00 | 0.00 | 71 | 1023.0 |
| 20260906104143 | 16 | 211 | 0.0 | 1.6 | 0.00 | 0.00 | 0.00 | 71 | 1023.0 |
| 20260906103641 | 16 | 197 | 0.0 | 1.6 | 0.00 | 0.00 | 0.00 | 69 | 1022.7 |
| 20260906103137 | 16 | 214 | 0.0 | 1.6 | 0.00 | 0.00 | 0.00 | 68 | 1022.9 |
| 20260906102632 | 17 | 286 | 3.2 | 3.2 | 0.00 | 0.00 | 0.00 | 65 | 1022.9 |
| 20260906102131 | 17 | 205 | 0.0 | 1.6 | 0.00 | 0.00 | 0.00 | 64 | 1022.9 |
| 20260906101626 | 17 | 246 | 0.0 | 1.6 | 0.00 | 0.00 | 0.00 | 63 | 1022.9 |
| 20260906101126 | 17 | 158 | 0.0 | 0.0 | 0.00 | 0.00 | 0.00 | 66 | 1022.7 |
| 20260906100621 | 17 | 185 | 0.0 | 1.6 | 0.00 | 0.00 | 0.00 | 63 | 1022.9 |
| 20260906100122 | 17 | 137 | 0.0 | 1.6 | 0.00 | 0.00 | 0.00 | 61 | 1022.7 |
| 20260906095616 | 18 | 347 | 1.6 | 3.2 | 0.00 | 0.00 | 0.00 | 58 | 1022.8 |
| 20260906095112 | 18 | 195 | 0.0 | 0.0 | 0.00 | 0.00 | 0.00 | 59 | 1022.5 |
| 20260906094610 | 18 | 316 | 3.2 | 4.8 | 0.00 | 0.00 | 0.00 | 58 | 1022.5 |
| 20260906094107 | 18 | 288 | 1.6 | 3.2 | 0.00 | 0.00 | 0.00 | 59 | 1022.6 |
| 20260906093603 | 18 | 212 | 0.0 | 1.6 | 0.00 | 0.00 | 0.00 | 60 | 1022.6 |
| 20260906093057 | 18 | 234 | 1.6 | 1.6 | 0.00 | 0.00 | 0.00 | 59 | 1022.6 |
| 20260906092552 | 18 | 313 | 4.8 | 4.8 | 0.00 | 0.00 | 0.00 | 60 | 1022.2 |
| 20260906092047 | 18 | 198 | 0.0 | 0.0 | 0.00 | 0.00 | 0.00 | 61 | 1022.3 |
| 20260906091543 | 18 | 204 | 0.0 | 0.0 | 0.00 | 0.00 | 0.00 | 60 | 1022.2 |
| 20260906091039 | 18 | 204 | 0.0 | 1.6 | 0.00 | 0.00 | 0.00 | 58 | 1022.3 |
| 20260906090539 | 18 | 225 | 1.6 | 1.6 | 0.00 | 0.00 | 0.00 | 59 | 1022.2 |
| 20260906090034 | 18 | 244 | 1.6 | 1.6 | 0.00 | 0.00 | 0.00 | 59 | 1021.9 |
| 20260906085533 | 18 | 193 | 0.0 | 0.0 | 0.00 | 0.00 | 0.00 | 58 | 1022.0 |
| 20260906085032 | 19 | 188 | 0.0 | 0.0 | 0.00 | 0.00 | 0.00 | 58 | 1022.0 |
| 20260906084527 | 19 | 272 | 1.6 | 1.6 | 0.00 | 0.00 | 0.00 | 58 | 1022.1 |
| 20260906084026 | 19 | 236 | 1.6 | 3.2 | 0.00 | 0.00 | 0.00 | 58 | 1022.2 |
| 20260906083522 | 19 | 355 | 3.2 | 3.2 | 0.00 | 0.00 | 0.00 | 58 | 1022.1 |
| 20260906083021 | 19 | 295 | 4.8 | 4.8 | 0.00 | 0.00 | 0.00 | 59 | 1022.0 |
| 20260906082517 | 19 | 191 | 0.0 | 1.6 | 0.00 | 0.00 | 0.00 | 58 | 1022.2 |
| 20260906082013 | 19 | 315 | 3.2 | 9.7 | 0.00 | 0.00 | 0.00 | 58 | 1022.1 |
| 20260906081508 | 19 | 9 | 0.0 | 3.2 | 0.00 | 0.00 | 0.00 | 58 | 1022.2 |
| 20260906081003 | 19 | 11 | 1.6 | 3.2 | 0.00 | 0.00 | 0.00 | 58 | 1022.0 |
| 20260906080500 | 19 | 278 | 4.8 | 8.0 | 0.00 | 0.00 | 0.00 | 58 | 1022.2 |
| 20260906075955 | 19 | 350 | 3.2 | 4.8 | 0.00 | 0.00 | 0.00 | 59 | 1022.3 |
| 20260906075450 | 19 | 236 | 1.6 | 4.8 | 0.00 | 0.00 | 0.00 | 59 | 1022.3 |
| 20260906074944 | 19 | 244 | 3.2 | 4.8 | 0.00 | 0.00 | 0.00 | 58 | 1022.5 |
| 20260906074439 | 20 | 211 | 0.0 | 1.6 | 0.00 | 0.00 | 0.00 | 58 | 1022.3 |
| 20260906073937 | 20 | 322 | 4.8 | 8.0 | 0.00 | 0.00 | 0.00 | 56 | 1022.2 |
| 20260906073432 | 20 | 324 | 4.8 | 4.8 | 0.00 | 0.00 | 0.00 | 56 | 1022.1 |
| 20260906072929 | 20 | 299 | 3.2 | 9.7 | 0.00 | 0.00 | 0.00 | 55 | 1022.2 |
| 20260906072424 | 20 | 348 | 6.4 | 11.3 | 0.00 | 0.00 | 0.00 | 54 | 1022.1 |
| 20260906071920 | 20 | 13 | 6.4 | 11.3 | 0.00 | 0.00 | 0.00 | 54 | 1022.3 |
| 20260906071415 | 20 | 30 | 4.8 | 9.7 | 0.00 | 0.00 | 0.00 | 54 | 1022.3 |
| 20260906070911 | 20 | 16 | 1.6 | 11.3 | 0.00 | 0.00 | 0.00 | 52 | 1022.6 |
| 20260906070407 | 20 | 346 | 3.2 | 4.8 | 0.00 | 0.00 | 0.00 | 53 | 1022.3 |
| 20260906065903 | 20 | 329 | 3.2 | 4.8 | 0.00 | 0.00 | 0.00 | 54 | 1022.5 |
| 20260906065356 | 20 | 306 | 3.2 | 4.8 | 0.00 | 0.00 | 0.00 | 54 | 1022.8 |
| 20260906064853 | 20 | 328 | 1.6 | 1.6 | 0.00 | 0.00 | 0.00 | 54 | 1022.6 |
| 20260906064349 | 19 | 127 | 0.0 | 1.6 | 0.00 | 0.00 | 0.00 | 56 | 1022.6 |
| 20260906063848 | 18 | 195 | 0.0 | 0.0 | 0.00 | 0.00 | 0.00 | 58 | 1022.7 |
| 20260906063344 | 19 | 208 | 0.0 | 1.6 | 0.00 | 0.00 | 0.00 | 58 | 1022.6 |
| 20260906062839 | 19 | 179 | 0.0 | 1.6 | 0.00 | 0.00 | 0.00 | 57 | 1022.7 |
| 20260906062338 | 20 | 178 | 0.0 | 0.0 | 0.00 | 0.00 | 0.00 | 54 | 1022.3 |
| 20260906061834 | 20 | 148 | 0.0 | 0.0 | 0.00 | 0.00 | 0.00 | 53 | 1022.3 |
| 20260906061330 | 19 | 112 | 1.6 | 1.6 | 0.00 | 0.00 | 0.00 | 56 | 1022.2 |
| 20260906060824 | 19 | 212 | 0.0 | 1.6 | 0.00 | 0.00 | 0.00 | 54 | 1022.2 |
| 20260906060323 | 20 | 215 | 0.0 | 1.6 | 0.00 | 0.00 | 0.00 | 54 | 1022.2 |
| 20260906055818 | 20 | 275 | 3.2 | 3.2 | 0.00 | 0.00 | 0.00 | 53 | 1022.2 |
| 20260906055313 | 20 | 294 | 1.6 | 4.8 | 0.00 | 0.00 | 0.00 | 54 | 1022.2 |
| 20260906054809 | 20 | 300 | 3.2 | 3.2 | 0.00 | 0.00 | 0.00 | 54 | 1022.1 |
| 20260906054304 | 20 | 301 | 3.2 | 3.2 | 0.00 | 0.00 | 0.00 | 54 | 1022.2 |
| 20260906053800 | 20 | 298 | 3.2 | 3.2 | 0.00 | 0.00 | 0.00 | 53 | 1022.5 |
| 20260906053255 | 20 | 303 | 3.2 | 3.2 | 0.00 | 0.00 | 0.00 | 55 | 1022.3 |
| 20260906052750 | 20 | 234 | 1.6 | 1.6 | 0.00 | 0.00 | 0.00 | 52 | 1022.5 |
| 20260906052246 | 20 | 194 | 0.0 | 1.6 | 0.00 | 0.00 | 0.00 | 51 | 1022.2 |
| 20260906051744 | 20 | 202 | 1.6 | 3.2 | 0.00 | 0.00 | 0.00 | 51 | 1022.3 |
| 20260906051243 | 21 | 217 | 0.0 | 1.6 | 0.00 | 0.00 | 0.00 | 52 | 1022.1 |
| 20260906050738 | 21 | 176 | 1.6 | 3.2 | 0.00 | 0.00 | 0.00 | 48 | 1021.8 |
| 20260906050233 | 21 | 87 | 4.8 | 4.8 | 0.00 | 0.00 | 0.00 | 49 | 1021.8 |
| 20260906045732 | 21 | 129 | 4.8 | 4.8 | 0.00 | 0.00 | 0.00 | 49 | 1021.4 |
| 20260906045227 | 21 | 326 | 4.8 | 8.0 | 0.00 | 0.00 | 0.00 | 47 | 1021.3 |
| 20260906044723 | 22 | 236 | 0.0 | 1.6 | 0.00 | 0.00 | 0.00 | 47 | 1021.4 |
| 20260906044218 | 22 | 268 | 1.6 | 4.8 | 0.00 | 0.00 | 0.00 | 46 | 1021.4 |
| 20260906043714 | 22 | 104 | 1.6 | 8.0 | 0.00 | 0.00 | 0.00 | 46 | 1021.3 |
| 20260906043210 | 22 | 84 | 1.6 | 4.8 | 0.00 | 0.00 | 0.00 | 47 | 1021.2 |
| 20260906042709 | 22 | 268 | 1.6 | 3.2 | 0.00 | 0.00 | 0.00 | 46 | 1021.1 |
| 20260906042209 | 22 | 329 | 1.6 | 4.8 | 0.00 | 0.00 | 0.00 | 46 | 1020.7 |
| 20260906041704 | 22 | 289 | 8.0 | 9.7 | 0.00 | 0.00 | 0.00 | 46 | 1020.8 |
| 20260906041159 | 22 | 323 | 6.4 | 8.0 | 0.00 | 0.00 | 0.00 | 46 | 1021.1 |
| 20260906040655 | 22 | 299 | 3.2 | 3.2 | 0.00 | 0.00 | 0.00 | 47 | 1020.8 |
| 20260906040150 | 22 | 330 | 3.2 | 4.8 | 0.00 | 0.00 | 0.00 | 46 | 1020.7 |
| 20260906035645 | 22 | 275 | 1.6 | 4.8 | 0.00 | 0.00 | 0.00 | 46 | 1021.2 |
| 20260906035142 | 23 | 285 | 1.6 | 3.2 | 0.00 | 0.00 | 0.00 | 46 | 1021.2 |
| 20260906034636 | 23 | 293 | 3.2 | 9.7 | 0.00 | 0.00 | 0.00 | 44 | 1021.0 |
| 20260906034136 | 23 | 237 | 1.6 | 4.8 | 0.00 | 0.00 | 0.00 | 43 | 1021.1 |
| 20260906033631 | 23 | 26 | 1.6 | 3.2 | 0.00 | 0.00 | 0.00 | 43 | 1021.3 |
| 20260906033126 | 24 | 251 | 3.2 | 4.8 | 0.00 | 0.00 | 0.00 | 42 | 1021.1 |
| 20260906032623 | 24 | 36 | 1.6 | 4.8 | 0.00 | 0.00 | 0.00 | 41 | 1021.2 |
| 20260906032122 | 24 | 68 | 1.6 | 3.2 | 0.00 | 0.00 | 0.00 | 41 | 1021.0 |
| 20260906031618 | 24 | 114 | 0.0 | 1.6 | 0.00 | 0.00 | 0.00 | 41 | 1021.1 |
| 20260906031113 | 25 | 306 | 1.6 | 3.2 | 0.00 | 0.00 | 0.00 | 40 | 1021.0 |
| 20260906030612 | 25 | 87 | 1.6 | 3.2 | 0.00 | 0.00 | 0.00 | 41 | 1021.0 |
| 20260906030108 | 25 | 207 | 0.0 | 1.6 | 0.00 | 0.00 | 0.00 | 40 | 1020.6 |
| 20260906025607 | 25 | 6 | 3.2 | 4.8 | 0.00 | 0.00 | 0.00 | 40 | 1020.5 |
| 20260906025106 | 25 | 81 | 3.2 | 8.0 | 0.00 | 0.00 | 0.00 | 40 | 1020.7 |
| 20260906024601 | 25 | 72 | 1.6 | 4.8 | 0.00 | 0.00 | 0.00 | 39 | 1020.1 |
| 20260906024055 | 25 | 312 | 3.2 | 3.2 | 0.00 | 0.00 | 0.00 | 39 | 1020.5 |
| 20260906023552 | 25 | 57 | 4.8 | 11.3 | 0.00 | 0.00 | 0.00 | 39 | 1020.5 |
| 20260906023046 | 25 | 158 | 0.0 | 1.6 | 0.00 | 0.00 | 0.00 | 38 | 1020.3 |
| 20260906022541 | 25 | 316 | 3.2 | 3.2 | 0.00 | 0.00 | 0.00 | 37 | 1020.1 |
| 20260906022037 | 25 | 163 | 0.0 | 1.6 | 0.00 | 0.00 | 0.00 | 37 | 1020.1 |
| 20260906021532 | 25 | 158 | 0.0 | 0.0 | 0.00 | 0.00 | 0.00 | 37 | 1020.0 |
| 20260906021031 | 25 | 187 | 0.0 | 1.6 | 0.00 | 0.00 | 0.00 | 36 | 1019.8 |
| 20260906020531 | 26 | 242 | 3.2 | 3.2 | 0.00 | 0.00 | 0.00 | 35 | 1019.8 |
| 20260906020031 | 26 | 346 | 3.2 | 3.2 | 0.00 | 0.00 | 0.00 | 36 | 1020.0 |
| 20260906015529 | 26 | 236 | 3.2 | 4.8 | 0.00 | 0.00 | 0.00 | 35 | 1019.8 |
| 20260906015024 | 26 | 275 | 6.4 | 11.3 | 0.00 | 0.00 | 0.00 | 35 | 1019.6 |
| 20260906014519 | 26 | 326 | 4.8 | 8.0 | 0.00 | 0.00 | 0.00 | 34 | 1019.8 |
| 20260906014015 | 27 | 353 | 3.2 | 8.0 | 0.00 | 0.00 | 0.00 | 33 | 1019.8 |
| 20260906013510 | 27 | 215 | 1.6 | 4.8 | 0.00 | 0.00 | 0.00 | 34 | 1019.6 |
| 20260906013006 | 26 | 291 | 3.2 | 3.2 | 0.00 | 0.00 | 0.00 | 34 | 1019.6 |
| 20260906012501 | 27 | 328 | 4.8 | 8.0 | 0.00 | 0.00 | 0.00 | 33 | 1019.4 |
| 20260906012000 | 27 | 333 | 1.6 | 4.8 | 0.00 | 0.00 | 0.00 | 34 | 1019.8 |
| 20260906011456 | 27 | 195 | 0.0 | 1.6 | 0.00 | 0.00 | 0.00 | 34 | 1019.7 |
| 20260906010950 | 27 | 183 | 3.2 | 8.0 | 0.00 | 0.00 | 0.00 | 33 | 1019.9 |
| 20260906010446 | 27 | 327 | 4.8 | 12.9 | 0.00 | 0.00 | 0.00 | 33 | 1020.0 |
| 20260906005943 | 27 | 327 | 6.4 | 12.9 | 0.00 | 0.00 | 0.00 | 33 | 1019.8 |
| 20260906005441 | 27 | 300 | 4.8 | 12.9 | 0.00 | 0.00 | 0.00 | 34 | 1020.0 |
| 20260906004940 | 27 | 297 | 6.4 | 12.9 | 0.00 | 0.00 | 0.00 | 33 | 1019.6 |
| 20260906004434 | 27 | 291 | 8.0 | 12.9 | 0.00 | 0.00 | 0.00 | 33 | 1019.9 |
| 20260906003930 | 27 | 346 | 8.0 | 17.7 | 0.00 | 0.00 | 0.00 | 33 | 1019.9 |
| 20260906003430 | 27 | 293 | 11.3 | 24.1 | 0.00 | 0.00 | 0.00 | 33 | 1020.0 |
| 20260906002926 | 28 | 334 | 6.4 | 17.7 | 0.00 | 0.00 | 0.00 | 33 | 1019.9 |
| 20260906002425 | 28 | 323 | 14.5 | 20.9 | 0.00 | 0.00 | 0.00 | 33 | 1020.0 |
| 20260906001920 | 28 | 311 | 19.3 | 22.5 | 0.00 | 0.00 | 0.00 | 32 | 1019.8 |
| 20260906001416 | 28 | 278 | 12.9 | 20.9 | 0.00 | 0.00 | 0.00 | 34 | 1019.8 |
| 20260906000911 | 28 | 332 | 9.7 | 22.5 | 0.00 | 0.00 | 0.00 | 34 | 1019.8 |
| 20260906000406 | 28 | 255 | 8.0 | 20.9 | 0.00 | 0.00 | 0.00 | 33 | 1020.1 |
| 20260905235901 | 29 | 325 | 16.1 | 22.5 | 0.00 | 0.00 | 0.00 | 31 | 1020.0 |
| 20260905235355 | 30 | 309 | 8.0 | 9.7 | 0.00 | 0.00 | 0.00 | 27 | 1019.8 |
| 20260905234850 | 30 | 311 | 9.7 | 12.9 | 0.00 | 0.00 | 0.00 | 26 | 1020.1 |
| 20260905234346 | 30 | 271 | 4.8 | 11.3 | 0.00 | 0.00 | 0.00 | 27 | 1019.8 |
| 20260905233841 | 30 | 282 | 4.8 | 9.7 | 0.00 | 0.00 | 0.00 | 28 | 1019.7 |
| 20260905233335 | 30 | 289 | 8.0 | 20.9 | 0.00 | 0.00 | 0.00 | 27 | 1019.7 |
| 20260905232835 | 30 | 296 | 4.8 | 4.8 | 0.00 | 0.00 | 0.00 | 28 | 1019.3 |
| 20260905232331 | 31 | 261 | 1.6 | 3.2 | 0.00 | 0.00 | 0.00 | 27 | 1019.4 |
| 20260905231826 | 31 | 262 | 1.6 | 3.2 | 0.00 | 0.00 | 0.00 | 26 | 1019.2 |
| 20260905231321 | 31 | 224 | 1.6 | 1.6 | 0.00 | 0.00 | 0.00 | 27 | 1019.7 |
| 20260905230818 | 31 | 188 | 1.6 | 3.2 | 0.00 | 0.00 | 0.00 | 25 | 1019.2 |
| 20260905230316 | 32 | 116 | 1.6 | 3.2 | 0.00 | 0.00 | 0.00 | 25 | 1019.1 |
| 20260905225815 | 32 | 151 | 0.0 | 4.8 | 0.00 | 0.00 | 0.00 | 26 | 1019.1 |
| 20260905225310 | 31 | 97 | 3.2 | 9.7 | 0.00 | 0.00 | 0.00 | 25 | 1019.1 |
| 20260905224810 | 31 | 89 | 4.8 | 8.0 | 0.00 | 0.00 | 0.00 | 25 | 1019.1 |
| 20260905224306 | 31 | 115 | 1.6 | 11.3 | 0.00 | 0.00 | 0.00 | 26 | 1018.7 |
| 20260905223801 | 31 | 157 | 1.6 | 3.2 | 0.00 | 0.00 | 0.00 | 25 | 1018.9 |
| 20260905223258 | 31 | 105 | 3.2 | 8.0 | 0.00 | 0.00 | 0.00 | 25 | 1018.7 |
| 20260905222753 | 31 | 141 | 1.6 | 4.8 | 0.00 | 0.00 | 0.00 | 25 | 1018.9 |
| 20260905222252 | 32 | 153 | 3.2 | 8.0 | 0.00 | 0.00 | 0.00 | 25 | 1018.9 |
| 20260905221748 | 32 | 92 | 6.4 | 11.3 | 0.00 | 0.00 | 0.00 | 24 | 1019.0 |
| 20260905221245 | 32 | 109 | 3.2 | 12.9 | 0.00 | 0.00 | 0.00 | 24 | 1019.0 |
| 20260905220740 | 33 | 85 | 8.0 | 14.5 | 0.00 | 0.00 | 0.00 | 22 | 1018.6 |
| 20260905220236 | 33 | 201 | 17.7 | 27.4 | 0.00 | 0.00 | 0.00 | 22 | 1018.7 |
| 20260905215736 | 33 | 128 | 8.0 | 11.3 | 0.00 | 0.00 | 0.00 | 22 | 1019.0 |
| 20260905215231 | 33 | 12 | 6.4 | 9.7 | 0.00 | 0.00 | 0.00 | 21 | 1019.0 |